createdAt,value
2018-12-18T00:00:10.337Z,29.47
2018-12-18T00:02:38.042Z,36.30
2018-12-18T00:05:07.960Z,30.13
2018-12-18T00:07:35.672Z,29.13
2018-12-18T00:10:04.870Z,38.70
2018-12-18T00:12:32.464Z,38.03
2018-12-18T00:15:00.195Z,28.30
2018-12-18T00:17:27.887Z,25.33
2018-12-18T00:19:55.673Z,31.93
2018-12-18T00:22:23.379Z,28.13
2018-12-18T00:24:52.184Z,29.97
2018-12-18T00:27:20.032Z,35.83
2018-12-18T00:29:47.768Z,32.47
2018-12-18T00:32:15.498Z,30.47
2018-12-18T00:34:43.142Z,25.53
2018-12-18T00:37:10.802Z,37.93
2018-12-18T00:39:38.576Z,32.33
2018-12-18T00:42:08.286Z,32.10
2018-12-18T00:44:35.946Z,28.90
2018-12-18T00:47:03.549Z,29.20
2018-12-18T00:49:31.223Z,28.73
2018-12-18T00:51:58.832Z,26.13
2018-12-18T00:54:26.530Z,28.93
2018-12-18T00:56:54.200Z,28.47
2018-12-18T00:59:21.844Z,32.50
2018-12-18T01:01:55.181Z,26.87
2018-12-18T01:04:22.820Z,35.43
2018-12-18T01:06:50.485Z,21.70
2018-12-18T01:09:18.153Z,26.50
2018-12-18T01:11:46.056Z,30.80
2018-12-18T01:14:13.728Z,34.97
2018-12-18T01:16:41.334Z,30.87
2018-12-18T01:19:08.999Z,31.50
2018-12-18T01:21:36.730Z,31.27
2018-12-18T01:24:04.426Z,25.53
2018-12-18T01:26:32.106Z,25.43
2018-12-18T01:28:59.876Z,21.57
2018-12-18T01:31:27.538Z,27.83
2018-12-18T01:33:59.260Z,27.43
2018-12-18T01:36:25.004Z,21.93
2018-12-18T01:38:52.739Z,21.30
2018-12-18T01:41:21.408Z,27.33
2018-12-18T01:43:49.123Z,30.10
2018-12-18T01:46:16.801Z,23.70
2018-12-18T01:48:44.477Z,20.00
2018-12-18T01:51:12.876Z,24.50
2018-12-18T01:53:40.459Z,21.77
2018-12-18T01:56:08.095Z,21.20
2018-12-18T01:58:35.679Z,29.53
2018-12-18T02:01:03.354Z,27.03
2018-12-18T02:03:30.937Z,26.60
2018-12-18T02:05:58.662Z,19.90
2018-12-18T02:08:26.269Z,19.13
2018-12-18T02:10:53.992Z,23.50
2018-12-18T02:13:21.671Z,17.10
2018-12-18T02:15:49.295Z,22.10
2018-12-18T02:18:16.948Z,20.13
2018-12-18T02:20:44.533Z,16.73
2018-12-18T02:23:12.314Z,25.07
2018-12-18T02:25:39.971Z,32.10
2018-12-18T02:28:07.600Z,22.10
2018-12-18T02:30:35.209Z,24.40
2018-12-18T02:33:02.940Z,22.73
2018-12-18T02:35:30.580Z,27.23
2018-12-18T02:37:58.241Z,25.00
2018-12-18T02:40:25.955Z,18.70
2018-12-18T02:42:53.683Z,24.73
2018-12-18T02:45:21.337Z,32.13
2018-12-18T02:47:48.964Z,22.83
2018-12-18T02:50:16.685Z,24.10
2018-12-18T02:52:44.313Z,28.70
2018-12-18T02:55:11.896Z,43.77
2018-12-18T02:57:39.617Z,27.67
2018-12-18T03:00:07.848Z,37.60
2018-12-18T03:02:35.436Z,32.57
2018-12-18T03:05:03.550Z,26.80
2018-12-18T03:07:31.136Z,25.60
2018-12-18T03:09:58.731Z,26.47
2018-12-18T03:12:26.378Z,28.40
2018-12-18T03:14:53.958Z,30.07
2018-12-18T03:17:21.536Z,22.50
2018-12-18T03:19:49.174Z,34.60
2018-12-18T03:22:16.842Z,30.40
2018-12-18T03:24:44.678Z,28.97
2018-12-18T03:27:12.382Z,37.10
2018-12-18T03:29:40.031Z,31.10
2018-12-18T03:32:09.816Z,39.43
2018-12-18T03:34:37.483Z,39.03
2018-12-18T03:37:05.096Z,32.50
2018-12-18T03:39:32.728Z,28.03
2018-12-18T03:42:00.335Z,33.07
2018-12-18T03:44:27.980Z,33.03
2018-12-18T03:46:55.737Z,39.43
2018-12-18T03:49:23.539Z,30.53
2018-12-18T03:51:51.253Z,25.10
2018-12-18T03:54:18.928Z,33.03
2018-12-18T03:56:47.441Z,27.30
2018-12-18T03:59:15.088Z,31.73
2018-12-18T04:01:42.674Z,26.77
2018-12-18T04:04:10.249Z,28.53
2018-12-18T04:06:37.913Z,28.23
2018-12-18T04:09:06.281Z,32.93
2018-12-18T04:11:36.005Z,26.97
2018-12-18T04:14:03.602Z,32.57
2018-12-18T04:16:31.247Z,24.30
2018-12-18T04:18:58.850Z,33.33
2018-12-18T04:21:26.502Z,29.10
2018-12-18T04:23:54.144Z,46.07
2018-12-18T04:26:21.780Z,25.43
2018-12-18T04:28:49.469Z,33.47
2018-12-18T04:31:17.135Z,27.47
2018-12-18T04:33:44.783Z,27.13
2018-12-18T04:36:12.362Z,29.20
2018-12-18T04:38:40.005Z,28.87
2018-12-18T04:41:07.604Z,31.83
2018-12-18T04:43:35.270Z,38.80
2018-12-18T04:46:02.876Z,32.50
2018-12-18T04:48:30.568Z,25.27
2018-12-18T04:50:58.249Z,37.83
2018-12-18T04:53:25.875Z,40.93
2018-12-18T04:55:53.477Z,33.70
2018-12-18T04:58:21.129Z,24.93
2018-12-18T05:00:48.713Z,23.53
2018-12-18T05:03:16.364Z,39.30
2018-12-18T05:05:44.024Z,93.27
2018-12-18T05:08:11.615Z,64.77
2018-12-18T05:10:39.270Z,78.40
2018-12-18T05:13:06.938Z,59.63
2018-12-18T05:15:34.835Z,74.00
2018-12-18T05:18:02.499Z,49.07
2018-12-18T05:20:30.245Z,41.83
2018-12-18T05:22:57.987Z,60.17
2018-12-18T05:25:25.722Z,48.80
2018-12-18T05:27:53.778Z,27.90
2018-12-18T05:30:21.950Z,46.23
2018-12-18T05:32:49.954Z,34.23
2018-12-18T05:35:17.604Z,40.07
2018-12-18T05:37:45.324Z,34.10
2018-12-18T05:40:13.070Z,35.73
2018-12-18T05:42:40.952Z,33.07
2018-12-18T05:45:08.712Z,36.40
2018-12-18T05:47:36.406Z,40.27
2018-12-18T05:50:05.717Z,32.10
2018-12-18T05:52:33.437Z,37.90
2018-12-18T05:55:01.188Z,42.50
2018-12-18T05:57:29.003Z,41.37
2018-12-18T05:59:56.738Z,39.93
2018-12-18T06:02:24.396Z,32.43
2018-12-18T06:04:51.985Z,33.67
2018-12-18T06:07:19.610Z,48.13
2018-12-18T06:09:47.211Z,40.03
2018-12-18T06:12:14.912Z,34.80
2018-12-18T06:14:42.531Z,36.97
2018-12-18T06:17:10.171Z,45.77
2018-12-18T06:19:37.824Z,38.23
2018-12-18T06:22:05.620Z,43.37
2018-12-18T06:24:33.224Z,37.70
2018-12-18T06:27:00.868Z,28.70
2018-12-18T06:29:28.464Z,35.53
2018-12-18T06:31:56.256Z,28.47
2018-12-18T06:34:23.837Z,29.23
2018-12-18T06:36:51.477Z,29.83
2018-12-18T06:39:19.175Z,29.07
2018-12-18T06:41:47.074Z,33.33
2018-12-18T06:44:14.809Z,28.60
2018-12-18T06:46:42.477Z,22.83
2018-12-18T06:49:10.132Z,24.10
2018-12-18T06:51:38.037Z,21.97
2018-12-18T06:54:05.654Z,37.03
2018-12-18T06:56:33.462Z,18.80
2018-12-18T06:59:01.061Z,30.10
2018-12-18T07:01:28.663Z,20.83
2018-12-18T07:03:56.304Z,28.53
2018-12-18T07:06:23.963Z,14.57
2018-12-18T07:08:51.602Z,16.10
2018-12-18T07:11:19.261Z,25.13
2018-12-18T07:13:46.898Z,25.77
2018-12-18T07:16:14.559Z,23.00
2018-12-18T07:18:42.473Z,35.53
2018-12-18T07:21:10.267Z,27.50
2018-12-18T07:23:37.883Z,38.73
2018-12-18T07:26:05.550Z,26.60
2018-12-18T07:28:33.288Z,22.60
2018-12-18T07:31:01.005Z,24.80
2018-12-18T07:33:29.055Z,27.93
2018-12-18T07:35:56.648Z,25.30
2018-12-18T07:38:25.701Z,31.30
2018-12-18T07:40:53.286Z,28.73
2018-12-18T07:43:21.015Z,43.33
2018-12-18T07:45:48.717Z,31.57
2018-12-18T07:48:16.363Z,26.50
2018-12-18T07:50:43.997Z,30.20
2018-12-18T07:53:11.768Z,24.37
2018-12-18T07:55:39.388Z,25.07
2018-12-18T07:58:07.080Z,26.90
2018-12-18T08:00:35.758Z,19.73
2018-12-18T08:03:03.473Z,31.90
2018-12-18T08:05:31.249Z,29.20
2018-12-18T08:07:58.907Z,17.37
2018-12-18T08:10:27.551Z,27.60
2018-12-18T08:12:55.231Z,29.23
2018-12-18T08:15:22.836Z,35.70
2018-12-18T08:17:50.497Z,36.70
2018-12-18T08:20:18.154Z,40.20
2018-12-18T08:22:45.910Z,33.67
2018-12-18T08:25:13.566Z,36.90
2018-12-18T08:27:41.400Z,35.50
2018-12-18T08:30:09.043Z,37.10
2018-12-18T08:32:36.666Z,29.23
2018-12-18T08:35:05.320Z,29.87
2018-12-18T08:37:33.259Z,29.23
2018-12-18T08:40:00.993Z,15.43
2018-12-18T08:42:28.579Z,43.43
2018-12-18T08:44:56.798Z,36.00
2018-12-18T08:47:24.470Z,38.53
2018-12-18T08:49:52.137Z,35.23
2018-12-18T08:52:20.047Z,45.17
2018-12-18T08:54:47.661Z,50.43
2018-12-18T08:57:15.617Z,46.53
2018-12-18T08:59:43.478Z,56.83
2018-12-18T09:02:11.247Z,34.90
2018-12-18T09:04:38.923Z,46.53
2018-12-18T09:07:06.615Z,55.40
2018-12-18T09:09:34.266Z,39.23
2018-12-18T09:12:01.927Z,42.97
2018-12-18T09:14:30.077Z,31.67
2018-12-18T09:17:03.161Z,43.37
2018-12-18T09:19:30.842Z,38.37
2018-12-18T09:21:58.623Z,45.53
2018-12-18T09:24:26.313Z,41.00
2018-12-18T09:26:53.918Z,34.30
2018-12-18T09:29:21.572Z,42.33
2018-12-18T09:31:49.440Z,30.13
2018-12-18T09:34:17.110Z,30.37
2018-12-18T09:36:45.588Z,48.30
2018-12-18T09:39:19.266Z,33.67
2018-12-18T09:41:57.776Z,54.50
2018-12-18T09:44:25.843Z,45.07
2018-12-18T09:46:53.433Z,28.73
2018-12-18T09:49:21.302Z,37.10
2018-12-18T09:51:48.937Z,37.93
2018-12-18T09:54:16.919Z,44.33
2018-12-18T09:56:51.964Z,34.30
2018-12-18T09:59:19.596Z,39.33
2018-12-18T10:01:47.189Z,40.70
2018-12-18T10:04:14.898Z,36.60
2018-12-18T10:06:42.676Z,37.40
2018-12-18T10:09:10.415Z,34.37
2018-12-18T10:11:38.192Z,40.37
2018-12-18T10:14:05.831Z,33.67
2018-12-18T10:16:33.445Z,36.90
2018-12-18T10:19:01.285Z,46.83
2018-12-18T10:21:28.922Z,29.57
2018-12-18T10:23:56.610Z,33.27
2018-12-18T10:26:24.275Z,48.90
2018-12-18T10:28:51.851Z,35.97
2018-12-18T10:31:19.514Z,32.30
2018-12-18T10:33:48.109Z,29.70
2018-12-18T10:36:16.030Z,22.90
2018-12-18T10:38:43.696Z,39.43
2018-12-18T10:41:11.352Z,28.50
2018-12-18T10:43:38.987Z,25.97
2018-12-18T10:46:06.623Z,24.70
2018-12-18T10:48:34.247Z,28.90
2018-12-18T10:51:01.881Z,24.73
2018-12-18T10:53:29.502Z,18.20
2018-12-18T10:55:57.206Z,18.60
2018-12-18T10:58:24.961Z,22.97
2018-12-18T11:00:58.318Z,18.00
2018-12-18T11:03:26.997Z,17.20
2018-12-18T11:05:54.812Z,21.73
2018-12-18T11:08:22.470Z,30.17
2018-12-18T11:10:50.879Z,23.93
2018-12-18T11:13:18.731Z,20.23
2018-12-18T11:15:46.454Z,17.87
2018-12-18T11:18:14.301Z,22.60
2018-12-18T11:20:42.002Z,13.37
2018-12-18T11:23:09.974Z,10.93
2018-12-18T11:25:37.615Z,12.53
2018-12-18T11:28:05.886Z,31.43
2018-12-18T11:30:33.538Z,16.87
2018-12-18T11:33:01.175Z,19.60
2018-12-18T11:35:28.816Z,14.17
2018-12-18T11:37:56.956Z,17.37
2018-12-18T11:40:24.696Z,25.53
2018-12-18T11:42:52.843Z,16.47
2018-12-18T11:45:20.662Z,19.53
2018-12-18T11:47:49.949Z,16.80
2018-12-18T11:50:17.790Z,16.13
2018-12-18T11:52:45.655Z,17.83
2018-12-18T11:55:13.294Z,15.60
2018-12-18T11:57:41.022Z,17.37
2018-12-18T12:00:10.621Z,14.97
2018-12-18T12:02:42.813Z,11.80
2018-12-18T12:05:07.869Z,14.03
2018-12-18T12:07:35.660Z,12.90
2018-12-18T12:10:03.940Z,16.00
2018-12-18T12:12:31.689Z,23.20
2018-12-18T12:14:59.450Z,18.87
2018-12-18T12:17:27.724Z,21.40
2018-12-18T12:19:55.454Z,21.83
2018-12-18T12:22:23.209Z,29.07
2018-12-18T12:24:50.860Z,14.87
2018-12-18T12:27:24.067Z,18.77
2018-12-18T12:29:51.736Z,11.93
2018-12-18T12:32:19.338Z,29.23
2018-12-18T12:34:47.241Z,19.20
2018-12-18T12:37:14.815Z,16.80
2018-12-18T12:39:42.453Z,14.97
2018-12-18T12:42:10.097Z,10.50
2018-12-18T12:44:37.678Z,10.67
2018-12-18T12:47:05.298Z,13.60
2018-12-18T12:49:38.587Z,11.53
2018-12-18T12:52:06.160Z,10.80
2018-12-18T12:54:33.743Z,11.43
2018-12-18T12:57:01.399Z,19.57
2018-12-18T12:59:29.089Z,15.13
2018-12-18T13:01:56.749Z,15.73
2018-12-18T13:04:24.360Z,14.40
2018-12-18T13:06:52.066Z,26.47
2018-12-18T13:09:19.687Z,13.60
2018-12-18T13:11:47.377Z,16.80
2018-12-18T13:14:15.001Z,18.50
2018-12-18T13:16:42.729Z,19.80
2018-12-18T13:19:10.341Z,10.80
2018-12-18T13:21:39.201Z,15.80
2018-12-18T13:24:06.817Z,19.50
2018-12-18T13:26:34.669Z,16.10
2018-12-18T13:29:02.312Z,12.77
2018-12-18T13:31:30.928Z,18.23
2018-12-18T13:33:58.652Z,19.23
2018-12-18T13:36:26.288Z,24.40
2018-12-18T13:38:54.008Z,22.10
2018-12-18T13:41:21.690Z,19.67
2018-12-18T13:43:49.323Z,21.20
2018-12-18T13:46:17.043Z,18.13
2018-12-18T13:48:44.712Z,17.53
2018-12-18T13:51:12.387Z,17.03
2018-12-18T13:53:40.063Z,22.43
2018-12-18T13:56:07.863Z,14.40
2018-12-18T13:58:35.466Z,18.27
2018-12-18T14:01:03.197Z,17.30
2018-12-18T14:03:30.990Z,21.13
2018-12-18T14:05:58.657Z,20.53
2018-12-18T14:08:27.105Z,20.13
2018-12-18T14:10:54.870Z,15.30
2018-12-18T14:13:22.597Z,18.77
2018-12-18T14:15:50.299Z,26.37
2018-12-18T14:18:17.887Z,27.23
2018-12-18T14:20:45.586Z,31.20
2018-12-18T14:23:14.354Z,19.37
2018-12-18T14:25:42.773Z,25.53
2018-12-18T14:28:10.428Z,25.93
2018-12-18T14:30:38.211Z,30.53
2018-12-18T14:33:06.706Z,17.60
2018-12-18T14:35:34.456Z,15.93
2018-12-18T14:38:02.928Z,22.13
2018-12-18T14:40:30.740Z,17.07
2018-12-18T14:42:58.618Z,20.27
2018-12-18T14:45:26.356Z,22.37
2018-12-18T14:47:55.376Z,18.70
2018-12-18T14:50:23.335Z,21.57
2018-12-18T14:52:51.309Z,27.60
2018-12-18T14:55:20.615Z,21.93
2018-12-18T14:57:48.682Z,22.77
2018-12-18T15:00:18.935Z,20.13
2018-12-18T15:02:46.976Z,27.00
2018-12-18T15:05:14.759Z,52.13
2018-12-18T15:07:42.432Z,35.83
2018-12-18T15:10:11.051Z,19.27
2018-12-18T15:12:40.857Z,15.57
2018-12-18T15:15:09.593Z,18.83
2018-12-18T15:17:37.276Z,18.97
2018-12-18T15:20:09.405Z,21.67
2018-12-18T15:22:37.056Z,25.83
2018-12-18T15:25:06.808Z,19.97
2018-12-18T15:27:35.262Z,52.10
2018-12-18T15:30:05.496Z,84.37
2018-12-18T15:32:33.614Z,79.20
2018-12-18T15:35:01.457Z,64.17
2018-12-18T15:37:30.547Z,63.60
2018-12-18T15:40:02.248Z,74.07
2018-12-18T15:42:31.980Z,69.37
2018-12-18T15:45:00.073Z,78.53
2018-12-18T15:47:28.370Z,64.30
2018-12-18T15:49:57.314Z,66.53
2018-12-18T15:52:26.443Z,88.07
2018-12-18T15:54:55.270Z,51.90
2018-12-18T15:57:26.154Z,43.17
2018-12-18T15:59:54.028Z,27.03
2018-12-18T16:02:25.587Z,22.70
2018-12-18T16:04:53.471Z,25.23
2018-12-18T16:07:21.153Z,30.97
2018-12-18T16:09:48.970Z,28.17
2018-12-18T16:12:17.873Z,21.40
2018-12-18T16:14:45.619Z,15.57
2018-12-18T16:17:13.514Z,16.83
2018-12-18T16:19:41.497Z,25.53
2018-12-18T16:22:11.109Z,31.00
2018-12-18T16:24:39.762Z,33.17
2018-12-18T16:27:07.616Z,25.17
2018-12-18T16:29:35.471Z,18.50
2018-12-18T16:32:03.259Z,10.77
2018-12-18T16:34:32.176Z,13.93
2018-12-18T16:37:00.064Z,13.87
2018-12-18T16:39:29.623Z,14.83
2018-12-18T16:41:58.907Z,13.83
2018-12-18T16:44:26.587Z,18.37
2018-12-18T16:46:55.219Z,19.33
2018-12-18T16:49:23.352Z,18.43
2018-12-18T16:51:51.074Z,12.60
2018-12-18T16:54:19.927Z,11.80
2018-12-18T16:56:49.212Z,9.73
2018-12-18T16:59:18.161Z,11.10
2018-12-18T17:01:46.225Z,15.03
2018-12-18T17:04:14.017Z,20.20
2018-12-18T17:06:41.709Z,24.00
2018-12-18T17:09:09.327Z,17.87
2018-12-18T17:11:38.215Z,20.87
2018-12-18T17:14:06.378Z,13.23
2018-12-18T17:16:35.096Z,17.63
2018-12-18T17:19:04.186Z,16.47
2018-12-18T17:21:32.764Z,15.37
2018-12-18T17:24:01.266Z,23.33
2018-12-18T17:26:29.056Z,16.20
2018-12-18T17:28:58.669Z,18.20
2018-12-18T17:31:26.697Z,18.47
2018-12-18T17:33:55.891Z,17.97
2018-12-18T17:36:27.294Z,17.33
2018-12-18T17:38:56.127Z,18.17
2018-12-18T17:41:25.005Z,15.40
2018-12-18T17:43:53.168Z,16.17
2018-12-18T17:46:26.337Z,18.97
2018-12-18T17:48:55.437Z,20.67
2018-12-18T17:51:23.194Z,15.43
2018-12-18T17:53:50.841Z,15.10
2018-12-18T17:56:18.508Z,18.90
2018-12-18T17:58:46.130Z,31.77
2018-12-18T18:01:14.983Z,15.57
2018-12-18T18:03:42.663Z,13.60
2018-12-18T18:06:10.429Z,12.13
2018-12-18T18:08:39.259Z,15.53
2018-12-18T18:11:06.976Z,15.87
2018-12-18T18:13:34.614Z,10.80
2018-12-18T18:16:02.320Z,16.03
2018-12-18T18:18:29.960Z,14.73
2018-12-18T18:20:57.800Z,15.20
2018-12-18T18:23:25.433Z,13.93
2018-12-18T18:25:53.394Z,11.33
2018-12-18T18:28:20.997Z,9.63
2018-12-18T18:30:48.682Z,12.10
2018-12-18T18:33:16.962Z,8.27
2018-12-18T18:35:45.139Z,9.60
2018-12-18T18:38:12.865Z,9.23
2018-12-18T18:40:41.398Z,14.80
2018-12-18T18:43:09.175Z,11.40
2018-12-18T18:45:36.971Z,8.53
2018-12-18T18:48:04.858Z,12.93
2018-12-18T18:50:33.779Z,12.20
2018-12-18T18:53:01.588Z,9.93
2018-12-18T18:55:29.299Z,17.03
2018-12-18T18:57:56.949Z,17.83
2018-12-18T19:00:26.009Z,18.17
2018-12-18T19:02:54.986Z,14.27
2018-12-18T19:05:22.852Z,16.37
2018-12-18T19:07:56.412Z,16.60
2018-12-18T19:10:23.012Z,20.40
2018-12-18T19:12:53.094Z,9.53
2018-12-18T19:15:20.952Z,14.47
2018-12-18T19:17:48.819Z,10.63
2018-12-18T19:20:16.890Z,10.10
2018-12-18T19:22:48.200Z,15.53
2018-12-18T19:25:16.803Z,16.90
2018-12-18T19:27:46.758Z,14.20
2018-12-18T19:30:14.780Z,24.23
2018-12-18T19:32:42.833Z,22.20
2018-12-18T19:35:11.045Z,23.83
2018-12-18T19:37:39.639Z,20.50
2018-12-18T19:40:09.046Z,21.03
2018-12-18T19:42:37.158Z,25.50
2018-12-18T19:45:06.472Z,18.80
2018-12-18T19:47:36.636Z,50.73
2018-12-18T19:50:05.123Z,24.07
2018-12-18T19:52:34.713Z,27.50
2018-12-18T19:55:02.969Z,23.90
2018-12-18T19:57:30.920Z,19.20
2018-12-18T19:59:58.713Z,28.03
2018-12-18T20:02:28.214Z,19.50
2018-12-18T20:04:56.030Z,14.90
2018-12-18T20:07:23.901Z,17.20
2018-12-18T20:09:51.947Z,18.60
2018-12-18T20:12:19.969Z,30.03
2018-12-18T20:14:48.753Z,20.17
2018-12-18T20:17:16.592Z,22.23
2018-12-18T20:19:45.484Z,28.43
2018-12-18T20:22:13.535Z,17.93
2018-12-18T20:24:42.631Z,26.17
2018-12-18T20:27:11.547Z,30.33
2018-12-18T20:29:41.391Z,26.13
2018-12-18T20:32:10.327Z,22.77
2018-12-18T20:34:39.735Z,23.17
2018-12-18T20:37:08.059Z,24.93
2018-12-18T20:39:36.941Z,24.00
2018-12-18T20:42:04.932Z,21.20
2018-12-18T20:44:33.611Z,23.13
2018-12-18T20:47:01.569Z,18.43
2018-12-18T20:49:30.306Z,31.27
2018-12-18T20:51:58.388Z,18.67
2018-12-18T20:54:27.918Z,23.33
2018-12-18T20:56:55.982Z,21.40
2018-12-18T20:59:23.901Z,25.07
2018-12-18T21:01:51.764Z,24.03
2018-12-18T21:04:19.580Z,18.70
2018-12-18T21:06:47.588Z,18.40
2018-12-18T21:09:16.265Z,31.53
2018-12-18T21:11:44.230Z,29.17
2018-12-18T21:14:12.822Z,32.40
2018-12-18T21:16:40.770Z,25.03
2018-12-18T21:19:08.858Z,39.30
2018-12-18T21:21:37.016Z,31.47
2018-12-18T21:24:05.201Z,52.60
2018-12-18T21:26:34.007Z,40.63
2018-12-18T21:29:01.707Z,42.50
2018-12-18T21:31:29.642Z,44.43
2018-12-18T21:33:57.521Z,35.27
2018-12-18T21:36:29.814Z,43.37
2018-12-18T21:38:57.499Z,35.07
2018-12-18T21:41:25.173Z,36.23
2018-12-18T21:43:52.902Z,35.97
2018-12-18T21:46:20.683Z,53.50
2018-12-18T21:48:48.543Z,41.50
2018-12-18T21:51:16.889Z,37.57
2018-12-18T21:53:46.690Z,25.07
2018-12-18T21:56:14.705Z,28.23
2018-12-18T21:58:42.621Z,44.30
2018-12-18T22:01:11.722Z,30.83
2018-12-18T22:03:39.743Z,69.33
2018-12-18T22:06:07.823Z,39.87
2018-12-18T22:08:36.907Z,37.23
2018-12-18T22:11:05.063Z,26.97
2018-12-18T22:13:36.339Z,26.00
2018-12-18T22:16:04.401Z,51.13
2018-12-18T22:18:32.369Z,34.73
2018-12-18T22:21:01.483Z,48.40
2018-12-18T22:23:30.601Z,26.30
2018-12-18T22:25:58.647Z,70.80
2018-12-18T22:28:26.547Z,28.57
2018-12-18T22:30:54.418Z,29.63
2018-12-18T22:33:22.268Z,36.83
2018-12-18T22:35:49.954Z,27.83
2018-12-18T22:38:17.771Z,20.90
2018-12-18T22:40:45.689Z,42.37
2018-12-18T22:43:13.725Z,17.30
2018-12-18T22:45:41.551Z,28.10
2018-12-18T22:48:09.418Z,32.33
2018-12-18T22:50:37.406Z,25.23
2018-12-18T22:53:05.244Z,33.97
2018-12-18T22:55:32.963Z,24.27
2018-12-18T22:58:01.007Z,24.13
2018-12-18T23:00:34.286Z,29.07
2018-12-18T23:03:01.933Z,28.07
2018-12-18T23:05:30.395Z,19.13
2018-12-18T23:07:59.119Z,27.03
2018-12-18T23:10:27.044Z,19.33
2018-12-18T23:12:54.818Z,25.73
2018-12-18T23:15:22.526Z,25.57
2018-12-18T23:17:50.495Z,30.23
2018-12-18T23:20:18.142Z,18.60
2018-12-18T23:22:45.749Z,19.43
2018-12-18T23:25:13.416Z,19.67
2018-12-18T23:27:41.291Z,17.63
2018-12-18T23:30:09.160Z,24.40
2018-12-18T23:32:37.032Z,20.80
2018-12-18T23:35:04.729Z,21.03
2018-12-18T23:37:35.263Z,17.17
2018-12-18T23:40:04.245Z,22.80
2018-12-18T23:42:31.896Z,17.87
2018-12-18T23:44:59.507Z,21.30
2018-12-18T23:47:27.175Z,16.43
2018-12-18T23:49:54.765Z,20.00
2018-12-18T23:52:22.680Z,21.20
2018-12-18T23:54:50.293Z,25.83
2018-12-18T23:57:17.940Z,22.57
2018-12-18T23:59:45.592Z,16.47
